Time;durP1;ratioP1;P1;durP2;ratioP2;P2;SDS_P1;SDS_P2;PMS_P1;PMS_P2;Temp;Humidity;BMP_temperature;BMP_pressure;BME280_temperature;BME280_humidity;BME280_pressure;Samples;Min_cycle;Max_cycle;Signal;HPM_P1;HPM_P2
2024/01/11 00:02:27;;;;;;;42.10;16.00;;;;;;;-7.01;100.00;101874.61;218095;1287;140888;-81
2024/01/11 00:07:27;;;;;;;30.80;12.00;;;;;;;-6.96;100.00;101864.96;218489;1288;139684;-82
2024/01/11 00:12:27;;;;;;;39.50;14.70;;;;;;;-6.90;100.00;101848.94;217808;1288;141016;-82
2024/01/11 00:17:28;;;;;;;33.60;11.70;;;;;;;-6.85;100.00;101834.13;218551;1289;139756;-82
2024/01/11 00:22:29;;;;;;;33.70;11.00;;;;;;;-6.81;100.00;101838.47;217996;1289;140799;-82
2024/01/11 00:27:29;;;;;;;30.40;11.30;;;;;;;-6.76;100.00;101811.41;218523;1288;139706;-81
2024/01/11 00:32:30;;;;;;;25.60;9.50;;;;;;;-6.73;100.00;101792.10;218050;1287;140878;-81
2024/01/11 00:37:30;;;;;;;31.40;11.20;;;;;;;-6.70;100.00;101792.02;218505;1290;139843;-82
2024/01/11 00:42:31;;;;;;;34.30;11.80;;;;;;;-6.66;100.00;101776.42;217872;1289;140794;-82
2024/01/11 00:47:31;;;;;;;34.10;12.90;;;;;;;-6.64;100.00;101767.11;218319;1289;139859;-82
2024/01/11 00:52:31;;;;;;;33.60;11.60;;;;;;;-6.63;100.00;101770.06;217946;1289;140901;-81
2024/01/11 00:57:32;;;;;;;34.70;13.60;;;;;;;-6.61;100.00;101772.80;218446;1290;139923;-82
2024/01/11 01:02:32;;;;;;;43.70;15.50;;;;;;;-6.58;100.00;101784.39;217901;1289;230003;-81
2024/01/11 01:07:32;;;;;;;41.20;13.50;;;;;;;-6.52;100.00;101785.52;218345;1289;140616;-81
2024/01/11 01:12:33;;;;;;;29.50;11.40;;;;;;;-6.49;100.00;101787.17;217899;1288;141985;-81
2024/01/11 01:17:33;;;;;;;31.20;12.00;;;;;;;-6.44;100.00;101779.20;218443;1290;139922;-81
2024/01/11 01:22:34;;;;;;;29.60;12.50;;;;;;;-6.39;100.00;101785.16;217722;1289;141997;-81
2024/01/11 01:27:34;;;;;;;37.10;13.00;;;;;;;-6.33;100.00;101793.35;218231;1290;141132;-82
2024/01/11 01:32:35;;;;;;;40.70;15.00;;;;;;;-6.29;100.00;101792.57;217943;1290;140800;-82
2024/01/11 01:37:36;;;;;;;43.70;14.50;;;;;;;-6.23;100.00;101779.48;218518;1291;140662;-81
2024/01/11 01:42:40;;;;;;;37.90;14.80;;;;;;;-6.19;100.00;101789.45;218050;1289;141374;-81
2024/01/11 01:47:42;;;;;;;48.80;17.30;;;;;;;-6.16;100.00;101779.09;218374;1288;140827;-82
2024/01/11 01:52:43;;;;;;;49.70;16.80;;;;;;;-6.12;100.00;101765.15;218047;1288;141333;-81
2024/01/11 01:57:45;;;;;;;35.30;12.70;;;;;;;-6.09;100.00;101754.17;218368;1288;141060;-81
2024/01/11 02:02:50;;;;;;;33.90;12.90;;;;;;;-6.10;100.00;101770.66;217816;1288;141864;-81
2024/01/11 02:07:51;;;;;;;36.70;12.60;;;;;;;-6.07;100.00;101774.41;218671;1288;96725;-82
2024/01/11 02:12:51;;;;;;;36.80;12.50;;;;;;;-6.08;100.00;101780.45;218043;1288;141136;-82
2024/01/11 02:17:52;;;;;;;35.30;13.00;;;;;;;-6.06;100.00;101774.27;218613;1288;140159;-82
2024/01/11 02:22:56;;;;;;;45.30;15.20;;;;;;;-6.05;100.00;101775.42;218045;1287;142465;-82
2024/01/11 02:27:56;;;;;;;51.10;16.50;;;;;;;-6.03;100.00;101775.64;218448;1288;140162;-81
2024/01/11 02:32:57;;;;;;;41.10;15.30;;;;;;;-6.00;100.00;101778.44;218035;1288;141654;-81
2024/01/11 02:37:59;;;;;;;43.50;15.00;;;;;;;-5.98;100.00;101771.30;218553;1288;96722;-81
2024/01/11 02:43:13;;;;;;;47.90;14.90;;;;;;;-5.94;100.00;101753.31;217965;1288;141038;-82
2024/01/11 02:48:13;;;;;;;44.70;14.50;;;;;;;-5.92;100.00;101731.58;218530;1287;139719;-81
2024/01/11 02:53:13;;;;;;;31.00;11.00;;;;;;;-5.91;100.00;101741.59;218088;1287;140585;-82
2024/01/11 02:58:14;;;;;;;28.20;9.60;;;;;;;-5.88;100.00;101751.39;218661;1288;139690;-81
2024/01/11 03:03:15;;;;;;;29.60;9.60;;;;;;;-5.83;100.00;101738.10;217951;1288;141026;-81
2024/01/11 03:08:15;;;;;;;26.50;8.90;;;;;;;-5.78;100.00;101742.09;218498;1288;96457;-81
2024/01/11 03:13:15;;;;;;;22.40;8.40;;;;;;;-5.71;100.00;101730.80;217980;1287;141541;-81
2024/01/11 03:18:16;;;;;;;24.90;8.20;;;;;;;-5.65;100.00;101737.48;218583;1288;140886;-81
2024/01/11 03:23:16;;;;;;;28.80;9.70;;;;;;;-5.59;100.00;101737.46;218015;1288;140824;-81
2024/01/11 03:28:17;;;;;;;26.20;9.50;;;;;;;-5.53;100.00;101728.94;218588;1288;140177;-81
2024/01/11 03:33:17;;;;;;;26.80;9.60;;;;;;;-5.49;100.00;101734.07;218050;1288;140230;-81
2024/01/11 03:38:42;;;;;;;27.50;9.50;;;;;;;-5.44;100.00;101729.50;218639;1288;96122;-81
2024/01/11 03:43:43;;;;;;;27.20;9.40;;;;;;;-5.39;100.00;101726.70;218001;1288;140317;-81
2024/01/11 03:48:44;;;;;;;26.20;9.00;;;;;;;-5.33;100.00;101720.16;218563;1288;140019;-81
2024/01/11 03:53:44;;;;;;;29.50;10.00;;;;;;;-5.27;100.00;101692.73;218046;1288;140391;-81
2024/01/11 03:58:49;;;;;;;31.20;10.50;;;;;;;-5.20;100.00;101685.93;218558;1288;139817;-81
2024/01/11 04:03:50;;;;;;;29.30;8.80;;;;;;;-5.14;100.00;101693.66;217864;1290;140554;-81
2024/01/11 04:08:51;;;;;;;30.40;9.60;;;;;;;-5.07;100.00;101705.36;218473;1288;140061;-81
2024/01/11 04:13:51;;;;;;;27.10;9.30;;;;;;;-5.00;100.00;101700.49;218082;1288;140513;-81
2024/01/11 04:18:52;;;;;;;28.80;9.70;;;;;;;-4.92;100.00;101684.50;218612;1287;139636;-81
2024/01/11 04:23:52;;;;;;;34.90;13.20;;;;;;;-4.85;100.00;101677.63;217969;1288;141813;-81
2024/01/11 04:28:53;;;;;;;27.70;10.00;;;;;;;-4.78;100.00;101658.42;218517;1289;140152;-81
2024/01/11 04:33:54;;;;;;;31.60;10.90;;;;;;;-4.70;100.00;101643.06;217961;1288;140814;-81
2024/01/11 04:38:54;;;;;;;24.10;9.60;;;;;;;-4.64;100.00;101637.61;218321;1288;139803;-81
2024/01/11 04:43:54;;;;;;;28.70;9.90;;;;;;;-4.57;100.00;101630.95;217916;1288;140776;-81
2024/01/11 04:48:55;;;;;;;27.90;9.60;;;;;;;-4.51;100.00;101631.88;218310;1288;140166;-81
2024/01/11 04:53:55;;;;;;;26.30;8.50;;;;;;;-4.45;100.00;101626.86;217877;1288;140554;-81
2024/01/11 04:58:56;;;;;;;27.00;9.40;;;;;;;-4.38;100.00;101613.61;218379;1290;140367;-81
2024/01/11 05:03:56;;;;;;;32.10;11.90;;;;;;;-4.32;100.00;101592.20;217858;1289;140654;-81
2024/01/11 05:08:57;;;;;;;26.20;9.20;;;;;;;-4.27;100.00;101577.10;218401;1289;140503;-80
2024/01/11 05:13:57;;;;;;;29.60;10.70;;;;;;;-4.20;100.00;101582.34;217805;1289;139733;-81
2024/01/11 05:18:57;;;;;;;28.20;9.70;;;;;;;-4.15;100.00;101589.27;218413;1289;139527;-81
2024/01/11 05:23:58;;;;;;;32.70;11.80;;;;;;;-4.10;100.00;101575.19;217694;1289;140904;-81
2024/01/11 05:28:59;;;;;;;32.30;11.70;;;;;;;-4.05;100.00;101572.35;218312;1289;140321;-81
2024/01/11 05:33:59;;;;;;;26.50;9.40;;;;;;;-4.01;100.00;101568.77;217814;1289;140713;-80
2024/01/11 05:38:59;;;;;;;26.80;9.80;;;;;;;-3.97;100.00;101575.82;218578;1289;139665;-81
2024/01/11 05:44:00;;;;;;;30.80;9.60;;;;;;;-3.93;100.00;101575.48;218150;1288;140912;-81
2024/01/11 05:49:01;;;;;;;29.60;9.70;;;;;;;-3.89;100.00;101574.02;218598;1288;140214;-80
2024/01/11 05:54:02;;;;;;;28.60;9.30;;;;;;;-3.85;100.00;101567.77;218054;1287;140214;-81
2024/01/11 05:59:02;;;;;;;30.70;10.30;;;;;;;-3.81;100.00;101565.38;218587;1287;141039;-81
2024/01/11 06:04:03;;;;;;;25.30;9.00;;;;;;;-3.78;100.00;101560.48;217833;1288;140625;-81
2024/01/11 06:09:04;;;;;;;31.80;11.40;;;;;;;-3.73;100.00;101547.23;218579;1287;139811;-81
2024/01/11 06:14:05;;;;;;;24.90;10.30;;;;;;;-3.69;100.00;101526.77;217880;1288;141464;-81
2024/01/11 06:19:07;;;;;;;29.80;11.00;;;;;;;-3.66;100.00;101524.35;218329;1288;139667;-81
2024/01/11 06:24:07;;;;;;;29.30;11.20;;;;;;;-3.63;100.00;101522.94;218008;1287;140513;-82
2024/01/11 06:29:07;;;;;;;35.40;12.50;;;;;;;-3.59;100.00;101506.61;218473;1288;139955;-82
2024/01/11 06:34:08;;;;;;;34.60;11.40;;;;;;;-3.56;100.00;101517.73;218016;1287;140621;-82
2024/01/11 06:39:10;;;;;;;35.00;10.90;;;;;;;-3.53;100.00;101521.09;218501;1288;140355;-82
2024/01/11 06:44:10;;;;;;;31.40;11.60;;;;;;;-3.49;100.00;101519.60;217906;1287;140525;-81
2024/01/11 06:49:11;;;;;;;41.00;13.10;;;;;;;-3.44;100.00;101522.77;218599;1287;139950;-81
2024/01/11 06:54:11;;;;;;;33.90;11.10;;;;;;;-3.40;100.00;101515.08;217994;1288;140840;-82
2024/01/11 06:59:12;;;;;;;35.30;11.30;;;;;;;-3.37;100.00;101511.88;218523;1288;141055;-81
2024/01/11 07:04:12;;;;;;;30.90;10.50;;;;;;;-3.35;100.00;101503.93;217900;1287;142094;-81
2024/01/11 07:09:13;;;;;;;29.90;10.70;;;;;;;-3.32;100.00;101501.60;218489;1287;139800;-81
2024/01/11 07:14:13;;;;;;;32.40;11.60;;;;;;;-3.29;100.00;101503.64;218039;1287;141406;-81
2024/01/11 07:19:14;;;;;;;33.30;11.40;;;;;;;-3.27;100.00;101505.44;218516;1288;139616;-81
2024/01/11 07:24:15;;;;;;;27.50;9.60;;;;;;;-3.23;100.00;101507.13;217894;1287;141975;-81
2024/01/11 07:29:15;;;;;;;29.30;11.20;;;;;;;-3.19;100.00;101500.06;218358;1287;140444;-82
2024/01/11 07:34:17;;;;;;;31.40;11.00;;;;;;;-3.15;100.00;101492.15;217854;1286;140702;-80
2024/01/11 07:39:17;;;;;;;31.60;11.20;;;;;;;-3.10;100.00;101494.23;218522;1287;140373;-81
2024/01/11 07:44:18;;;;;;;35.30;11.70;;;;;;;-3.07;100.00;101523.54;218099;1288;141218;-80
2024/01/11 07:49:18;;;;;;;29.40;10.00;;;;;;;-3.04;100.00;101514.94;218552;1287;139590;-80
2024/01/11 07:54:19;;;;;;;36.60;10.60;;;;;;;-2.99;100.00;101513.67;218026;1287;141343;-80
2024/01/11 07:59:20;;;;;;;31.80;11.20;;;;;;;-2.92;100.00;101495.39;218441;1287;139890;-80
2024/01/11 08:04:20;;;;;;;34.60;12.10;;;;;;;-2.88;100.00;101496.13;217913;1287;140535;-80
2024/01/11 08:09:21;;;;;;;31.10;12.70;;;;;;;-2.84;100.00;101496.04;218327;1287;139979;-80
2024/01/11 08:14:22;;;;;;;43.40;15.70;;;;;;;-2.80;100.00;101496.64;217871;1290;140460;-80
2024/01/11 08:19:23;;;;;;;42.50;15.80;;;;;;;-2.75;100.00;101504.58;218243;1288;140492;-80
2024/01/11 08:24:24;;;;;;;42.60;14.60;;;;;;;-2.69;100.00;101498.09;217826;1287;140085;-80
2024/01/11 08:29:25;;;;;;;44.30;14.30;;;;;;;-2.64;100.00;101487.39;218388;1288;140134;-80
2024/01/11 08:34:26;;;;;;;38.30;13.70;;;;;;;-2.60;100.00;101471.39;217961;1290;140543;-80
2024/01/11 08:39:27;;;;;;;34.90;12.40;;;;;;;-2.55;100.00;101477.49;218459;1287;140132;-80
2024/01/11 08:44:29;;;;;;;40.70;14.10;;;;;;;-2.53;100.00;101502.13;218132;1288;140641;-80
2024/01/11 08:49:30;;;;;;;34.30;11.90;;;;;;;-2.48;100.00;101494.71;218576;1288;139933;-80
2024/01/11 08:54:32;;;;;;;34.90;13.00;;;;;;;-2.43;100.00;101489.01;217894;1288;141626;-81
2024/01/11 08:59:33;;;;;;;33.60;12.20;;;;;;;-2.37;100.00;101492.86;218593;1287;139746;-80
2024/01/11 09:04:33;;;;;;;36.30;12.40;;;;;;;-2.31;100.00;101493.79;217997;1288;140663;-80
2024/01/11 09:09:34;;;;;;;39.80;13.30;;;;;;;-2.27;100.00;101488.77;218563;1288;139730;-79
2024/01/11 09:14:34;;;;;;;38.30;13.90;;;;;;;-2.24;100.00;101502.54;218084;1288;140888;-79
2024/01/11 09:19:35;;;;;;;37.60;13.70;;;;;;;-2.18;100.00;101509.73;218581;1287;139400;-79
2024/01/11 09:24:36;;;;;;;45.40;15.20;;;;;;;-2.14;100.00;101505.05;217982;1287;141527;-80
2024/01/11 09:29:36;;;;;;;39.60;14.90;;;;;;;-2.10;100.00;101508.02;218600;1287;139820;-80
2024/01/11 09:34:37;;;;;;;43.60;14.40;;;;;;;-2.07;100.00;101497.87;217757;1288;140478;-80
2024/01/11 09:39:37;;;;;;;45.60;15.50;;;;;;;-2.06;100.00;101505.75;218532;1286;139722;-80
2024/01/11 09:44:38;;;;;;;65.90;21.90;;;;;;;-2.03;100.00;101506.46;218078;1288;141746;-80
2024/01/11 09:49:41;;;;;;;54.60;18.10;;;;;;;-1.98;100.00;101497.19;218236;1288;272164;-80
2024/01/11 09:54:41;;;;;;;48.70;18.40;;;;;;;-1.94;100.00;101495.95;217922;1288;140409;-80
2024/01/11 09:59:42;;;;;;;70.60;30.10;;;;;;;-1.91;100.00;101499.14;218536;1288;139748;-80
2024/01/11 10:04:43;;;;;;;58.90;21.40;;;;;;;-1.88;100.00;101500.05;218002;1287;140723;-80
2024/01/11 10:09:44;;;;;;;53.30;18.50;;;;;;;-1.84;100.00;101498.12;218521;1287;140184;-80
2024/01/11 10:14:44;;;;;;;62.90;21.10;;;;;;;-1.81;100.00;101483.02;218014;1288;140726;-80
2024/01/11 10:19:45;;;;;;;54.70;20.40;;;;;;;-1.75;100.00;101471.20;218661;1287;96187;-80
2024/01/11 10:24:46;;;;;;;50.90;19.00;;;;;;;-1.70;100.00;101463.20;218034;1286;140414;-80
2024/01/11 10:29:48;;;;;;;57.30;20.80;;;;;;;-1.65;100.00;101463.20;218424;1287;139717;-80
2024/01/11 10:34:49;;;;;;;51.80;19.40;;;;;;;-1.62;100.00;101461.90;218217;1288;224172;-80
2024/01/11 10:39:50;;;;;;;52.30;18.90;;;;;;;-1.59;100.00;101453.38;218063;1288;140238;-80
2024/01/11 10:44:55;;;;;;;53.20;19.30;;;;;;;-1.55;100.00;101437.48;218125;1289;142232;-79
2024/01/11 10:49:57;;;;;;;51.80;18.40;;;;;;;-1.50;100.00;101436.98;217815;1289;140532;-80
2024/01/11 10:54:59;;;;;;;44.70;17.20;;;;;;;-1.45;100.00;101447.61;218179;1288;140016;-80
2024/01/11 11:00:03;;;;;;;48.30;18.30;;;;;;;-1.40;100.00;101453.98;217754;1290;141099;-80
2024/01/11 11:05:05;;;;;;;54.60;19.20;;;;;;;-1.35;100.00;101451.01;218301;1290;140843;-79
2024/01/11 11:10:08;;;;;;;57.40;19.30;;;;;;;-1.30;100.00;101458.59;217803;1288;140607;-79
2024/01/11 11:15:11;;;;;;;54.20;19.90;;;;;;;-1.24;100.00;101459.14;218334;1289;139815;-80
2024/01/11 11:20:12;;;;;;;51.60;18.40;;;;;;;-1.18;100.00;101468.62;217807;1289;141443;-80
2024/01/11 11:25:27;;;;;;;53.30;20.50;;;;;;;-1.13;100.00;101469.91;218255;1289;140434;-80
2024/01/11 11:30:28;;;;;;;49.70;17.60;;;;;;;-1.08;100.00;101473.78;217753;1288;140609;-80
2024/01/11 11:35:28;;;;;;;52.00;20.70;;;;;;;-1.03;100.00;101467.23;218285;1288;140615;-80
2024/01/11 11:40:36;;;;;;;44.00;18.10;;;;;;;-0.98;100.00;101451.23;218041;1290;141085;-80
2024/01/11 11:45:37;;;;;;;47.80;19.00;;;;;;;-0.92;100.00;101444.45;218389;1288;140123;-80
2024/01/11 11:50:39;;;;;;;39.20;16.60;;;;;;;-0.87;100.00;101443.66;218152;1287;140546;-80
2024/01/11 11:55:40;;;;;;;38.20;16.30;;;;;;;-0.82;100.00;101440.40;218399;1287;139405;-80
2024/01/11 12:00:41;;;;;;;36.70;16.40;;;;;;;-0.78;100.00;101428.77;218036;1287;141731;-80
2024/01/11 12:05:43;;;;;;;36.30;15.60;;;;;;;-0.72;100.00;101427.49;218615;1287;140054;-80
2024/01/11 12:10:44;;;;;;;38.50;15.40;;;;;;;-0.68;100.00;101422.66;218078;1288;140921;-80
2024/01/11 12:15:44;;;;;;;40.60;15.60;;;;;;;-0.65;100.00;101429.89;218630;1287;139682;-80
2024/01/11 12:20:45;;;;;;;34.40;14.40;;;;;;;-0.61;100.00;101426.73;217865;1287;140935;-81
2024/01/11 12:25:46;;;;;;;39.20;14.70;;;;;;;-0.59;100.00;101417.05;218535;1288;96371;-81
2024/01/11 12:30:47;;;;;;;36.40;14.70;;;;;;;-0.56;100.00;101417.66;218021;1288;140855;-80
2024/01/11 12:35:48;;;;;;;38.10;14.70;;;;;;;-0.54;100.00;101412.47;218365;1287;142334;-81
2024/01/11 12:40:49;;;;;;;37.80;14.60;;;;;;;-0.51;100.00;101418.29;217884;1288;140891;-80
2024/01/11 12:45:50;;;;;;;36.70;15.10;;;;;;;-0.48;100.00;101416.33;218401;1288;140046;-80
2024/01/11 12:50:52;;;;;;;38.00;15.60;;;;;;;-0.45;100.00;101408.52;217679;1290;142827;-80
2024/01/11 12:56:10;;;;;;;39.00;15.80;;;;;;;-0.44;100.00;101421.42;218485;1288;95913;-80
2024/01/11 13:01:11;;;;;;;35.20;15.90;;;;;;;-0.42;100.00;101425.05;217668;1289;139797;-81
2024/01/11 13:06:13;;;;;;;39.30;14.30;;;;;;;-0.38;100.00;101426.39;218392;1289;140020;-82
2024/01/11 13:11:16;;;;;;;39.80;17.40;;;;;;;-0.37;100.00;101417.92;217760;1290;140354;-81
2024/01/11 13:16:20;;;;;;;37.50;16.20;;;;;;;-0.35;100.00;101411.64;218074;1289;141066;-81
2024/01/11 13:21:24;;;;;;;38.50;16.30;;;;;;;-0.32;100.00;101421.30;217537;1289;140736;-81
2024/01/11 13:26:24;;;;;;;39.70;16.80;;;;;;;-0.29;100.00;101417.65;218279;1288;106321;-81
2024/01/11 13:31:25;;;;;;;35.50;15.30;;;;;;;-0.26;100.00;101424.35;217621;1290;141651;-80
2024/01/11 13:36:25;;;;;;;42.00;18.70;;;;;;;-0.22;100.00;101417.88;218514;1288;140332;-81
2024/01/11 13:41:25;;;;;;;38.60;17.30;;;;;;;-0.20;100.00;101417.21;217927;1288;140601;-81
2024/01/11 13:46:26;;;;;;;38.20;16.60;;;;;;;-0.17;100.00;101420.45;218608;1287;140665;-81
2024/01/11 13:51:26;;;;;;;35.90;16.60;;;;;;;-0.12;100.00;101424.18;218061;1288;140760;-81
2024/01/11 13:56:27;;;;;;;32.10;14.00;;;;;;;-0.07;100.00;101418.46;218757;1287;96033;-81
2024/01/11 14:01:28;;;;;;;36.40;16.50;;;;;;;-0.04;100.00;101404.15;218081;1287;140448;-81
2024/01/11 14:06:28;;;;;;;118.10;41.90;;;;;;;-0.01;100.00;101396.78;218603;1287;140118;-81
2024/01/11 14:11:29;;;;;;;36.50;16.40;;;;;;;0.03;100.00;101395.65;217827;1287;141836;-81
2024/01/11 14:16:30;;;;;;;30.70;13.40;;;;;;;0.05;100.00;101397.26;218244;1287;140624;-85
2024/01/11 14:21:30;;;;;;;32.90;16.50;;;;;;;0.06;100.00;101404.17;218066;1286;140230;-84
2024/01/11 14:26:32;;;;;;;27.80;13.00;;;;;;;0.09;100.00;101405.45;218547;1288;96989;-85
2024/01/11 14:31:33;;;;;;;33.60;14.90;;;;;;;0.11;100.00;101416.66;217875;1288;140369;-85
2024/01/11 14:43:59;;;;;;;;;;;;;;;;;;;;;
2024/01/11 14:49:36;;;;;;;;;;;;;;;;;;;;;
2024/01/11 15:07:50;;;;;;;;;;;;;;;;;;;;;
2024/01/11 15:20:03;;;;;;;;;;;;;;;;;;;;;
2024/01/11 15:36:57;;;;;;;29.40;12.90;;;;;;;0.39;100.00;101478.80;215820;1305;97248;-86
2024/01/11 15:49:12;;;;;;;;;;;;;;;;;;;;;
2024/01/11 15:54:47;;;;;;;32.90;14.80;;;;;;;0.45;100.00;101456.89;213155;1310;140497;-86
2024/01/11 16:07:00;;;;;;;;;;;;;;;;;;;;;
2024/01/11 16:37:54;;;;;;;;;;;;;;;;;;;;;
2024/01/11 16:49:14;;;;;;;29.20;12.60;;;;;;;0.61;100.00;101504.41;211632;1329;105321;-88
2024/01/11 17:01:03;;;;;;;23.00;11.70;;;;;;;0.67;100.00;101503.22;209744;1337;140132;-86
2024/01/11 18:12:28;;;;;;;;;;;;;;;;;;;;;
2024/01/11 19:01:26;;;;;;;;;;;;;;;;;;;;;
2024/01/11 19:19:41;;;;;;;;;;;;;;;;;;;;;
2024/01/11 20:02:44;;;;;;;;;;;;;;;;;;;;;
2024/01/11 20:44:50;;;;;;;;;;;;;;;;;;;;;
2024/01/11 21:28:13;;;;;;;;;;;;;;;;;;;;;
2024/01/11 21:50:30;;;;;;;46.10;23.00;;;;;;;0.75;100.00;101686.56;210574;1287;141219;-90
2024/01/11 21:55:30;;;;;;;49.70;22.70;;;;;;;0.72;100.00;101684.74;218376;1287;139776;-91
2024/01/11 22:00:31;;;;;;;28.90;15.90;;;;;;;0.70;100.00;101695.44;218065;1287;140348;-91
2024/01/11 22:05:34;;;;;;;31.90;14.60;;;;;;;0.65;100.00;101697.90;218711;1286;139484;-91
2024/01/11 22:10:35;;;;;;;32.10;15.20;;;;;;;0.60;100.00;101706.93;218082;1287;140540;-90
2024/01/11 22:15:35;;;;;;;34.50;16.10;;;;;;;0.57;100.00;101710.90;218532;1287;139480;-91
2024/01/11 22:20:36;;;;;;;39.80;16.20;;;;;;;0.51;100.00;101709.41;218113;1287;140374;-91
2024/01/11 22:25:37;;;;;;;39.80;18.00;;;;;;;0.46;100.00;101705.87;218432;1287;139515;-92
2024/01/11 22:30:50;;;;;;;37.20;18.20;;;;;;;0.39;100.00;101713.20;218018;1286;140315;-92
2024/01/11 22:35:52;;;;;;;32.60;15.80;;;;;;;0.34;100.00;101714.80;218574;1288;138486;-91
2024/01/11 22:40:53;;;;;;;36.70;15.30;;;;;;;0.28;100.00;101713.75;218002;1287;140753;-92
2024/01/11 22:45:54;;;;;;;32.70;14.00;;;;;;;0.23;100.00;101712.16;218402;1288;140062;-92
2024/01/11 22:50:55;;;;;;;30.80;14.40;;;;;;;0.20;100.00;101709.77;217823;1288;141500;-93
2024/01/11 22:55:56;;;;;;;29.60;14.10;;;;;;;0.13;100.00;101712.69;218469;1287;96007;-93
2024/01/11 23:00:56;;;;;;;26.60;12.80;;;;;;;0.07;100.00;101704.48;217790;1288;140564;-93
2024/01/11 23:05:57;;;;;;;25.80;11.90;;;;;;;0.03;100.00;101706.81;218377;1287;139636;-94
2024/01/11 23:10:57;;;;;;;27.20;12.40;;;;;;;-0.01;100.00;101705.86;217557;1289;140811;-94
2024/01/11 23:15:58;;;;;;;31.80;14.20;;;;;;;-0.06;100.00;101710.20;218452;1288;141219;-94
2024/01/11 23:20:58;;;;;;;25.90;11.80;;;;;;;-0.12;100.00;101709.73;217748;1291;140997;-94
2024/01/11 23:25:58;;;;;;;26.40;11.60;;;;;;;-0.15;100.00;101710.66;218360;1289;96015;-93
2024/01/11 23:30:59;;;;;;;22.90;11.60;;;;;;;-0.21;100.00;101708.13;217745;1288;142736;-94
2024/01/11 23:35:59;;;;;;;24.00;11.60;;;;;;;-0.26;100.00;101718.75;218335;1288;139816;-95
2024/01/11 23:41:00;;;;;;;24.10;10.30;;;;;;;-0.30;100.00;101723.80;217919;1289;141156;-95
2024/01/11 23:46:00;;;;;;;26.00;10.90;;;;;;;-0.37;100.00;101736.84;218102;1291;139955;-94
2024/01/11 23:51:01;;;;;;;23.60;10.10;;;;;;;-0.41;100.00;101732.63;217818;1287;140943;-93
2024/01/11 23:56:02;;;;;;;24.50;9.60;;;;;;;-0.45;100.00;101724.30;218663;1288;96012;-94
